• Join FlightAware (Why Join?)
  • Login
  • US Flag 
03:57AM EDT


 

Airport Tracker/Info


-or-


 

Live Flight TrackerFlight Track Log ✈ EGF3994 ✈ 09-Jun-2013 ✈ KORD - KDAY

Flight Track Log - Related Links

Times and Time Zones

All times are in EDT time to prevent confusion due to time zone crossing. See the EGF3994 flight status page for this flight to view local times or setup timezone preferences in your user account.

Time Position Orientation Groundspeed Altitude Reporting Facility
EDT Latitude Longitude Course Direction KTS MPH feet Rate Location/Type
06:49PM 41.9167 -87.8667 111° Southeast 195 224 2,900  Level Chicago TRACON
06:49PM 41.9100 -87.8431 111° Southeast 199 229 3,600 1,800 Climbing Chicago Center
06:51PM 41.9364 -87.7550 68° East 258 297 5,700 2,280 Climbing Chicago Center
06:52PM 41.9800 -87.6514 60° Northeast 268 308 8,400 2,340 Climbing Chicago Center
06:53PM 41.9742 -87.5461 94° East 277 319 10,600 1,980 Climbing Chicago Center
06:54PM 41.9669 -87.4344 95° East 295 339 12,500 1,980 Climbing Chicago Center
06:55PM 41.9603 -87.3256 95° East 296 341 14,800 1,740 Climbing Chicago Center
06:56PM 41.9536 -87.2142 95° East 298 343 16,200 1,020 Climbing Chicago Center
06:57PM 41.9444 -87.0647 95° East 333 383 17,000 900 Climbing Chicago Center
06:58PM 41.9475 -86.9250 88° East 370 426 18,100 960 Climbing Chicago Center
06:59PM 41.9489 -86.7803 89° East 386 444 19,100 1,320 Climbing Chicago Center
07:00PM 41.9508 -86.6236 89° East 389 448 20,900 900 Climbing Chicago Center
07:01PM 41.9525 -86.4719 89° East 403 464 21,000  Climbing Chicago Center
07:02PM 41.9544 -86.3108 89° East 428 493 21,000 660 Level Chicago Center
07:03PM 41.9408 -86.1650 97° East 391 450 22,400 960 Climbing Chicago Center
07:04PM 41.8961 -86.0503 118° Southeast 352 405 23,000 240 Climbing Chicago Center
07:05PM 41.8011 -85.9622 145° Southeast 347 399 23,000  Level Chicago Center
07:06PM 41.7200 -85.8853 145° Southeast 357 411 23,000  Level Chicago Center
07:07PM 41.6392 -85.8097 145° Southeast 357 411 23,000  Level Chicago Center
07:08PM 41.5578 -85.7306 144° Southeast 364 419 23,000 -600 Level Chicago Center
07:09PM 41.4872 -85.6344 134° Southeast 365 420 21,800 -1,380 Descending Chicago Center
07:10PM 41.4033 -85.5164 133° Southeast 372 428 20,200 -900 Descending Chicago Center
07:11PM 41.3383 -85.4286 135° Southeast 342 394 20,000 -120 Descending Chicago Center
07:12PM 41.2722 -85.3397 135° Southeast 337 388 20,000  Level Chicago Center
07:13PM 41.2019 -85.2439 134° Southeast 355 409 20,000  Level Chicago Center
07:14PM 41.1258 -85.1431 135° Southeast 379 436 20,000  Level Chicago Center
07:15PM 41.0311 -85.0164 135° Southeast 399 459 20,000 -300 Level Chicago Center
07:16PM 40.9506 -84.9086 135° Southeast 409 471 19,400 -1,740 Descending Chicago Center
07:17PM 40.8789 -84.8122 135° Southeast 382 440 16,500 -2,160 Descending Chicago Center
07:18PM 40.8072 -84.7194 136° Southeast 366 421 15,000 -720 Descending Chicago Center
07:19PM 40.7336 -84.6244 136° Southeast 354 407 15,100 -420 Climbing Indianapolis Center
07:20PM 40.6978 -84.5761 134° Southeast 356 410 14,400 -1,500 Descending Indianapolis Center
07:21PM 40.6158 -84.4717 136° Southeast 348 400 12,600 -1,560 Descending Indianapolis Center
07:22PM 40.5439 -84.4300 156° South 336 387 11,500 -1,440 Descending Indianapolis Center
07:23PM 40.4558 -84.3797 157° South 293 337 9,800 -1,380 Descending Indianapolis Center
07:24PM 40.3958 -84.3439 156° South 256 295 8,800 -1,320 Descending Indianapolis Center
07:25PM 40.3436 -84.3122 155° Southeast 238 274 7,500 -1,500 Descending Indianapolis Center
07:25PM 40.3244 -84.3003 155° Southeast 250 288 7,000 -1,680 Descending Indianapolis Center
07:26PM 40.2836 -84.2769 156° South 252 290 6,000 -1,560 Descending Indianapolis Center
07:26PM 40.2603 -84.2619 154° Southeast 252 290 5,400 -1,380 Descending Indianapolis Center
07:27PM 40.2175 -84.2378 157° South 244 281 4,600 -1,080 Descending Indianapolis Center
07:27PM 40.1992 -84.2278 157° South 245 282 4,300 -600 Descending Indianapolis Center
07:28PM 40.1578 -84.2244 176° South 211 243 4,000 -720 Descending Indianapolis Center
07:28PM 40.1397 -84.2239 179° South 223 257 3,600 -780 Descending Indianapolis Center
07:29PM 40.0706 -84.2181 176° South 214 246 2,900 -540 Descending Indianapolis Center
07:30PM 40.0200 -84.2169 179° South 220 253 2,700 -360 Descending Indianapolis Center
07:31PM 39.9742 -84.2136 177° South 173 199 2,300 -660 Descending Indianapolis Center
07:31PM 39.9622 -84.2128 177° South 187 215 1,900 -840 Descending Indianapolis Center
07:32PM 39.9367 -84.2139 182° South 121 139 1,500 -300 Descending Indianapolis Center
07:32PM 39.9292 -84.2128 174° South 172 198 1,600 300 Climbing Indianapolis Center